Aérodrome :
LOGIN :

S'inscrire | Disclaimer

   EN    FR    IT 

 










Légende :    VFR   VFR Marginal   IFR   IFR Intensif   IFR Très Intensif
Visi : 
Plafond : 
>= 8 km
>= 3000ft
5 à 8 km
1000 à 3000 ft
1500m à 5 km
500 à 1000 ft
800 à 1500m
200 à 500 ft
< 800m
< 200 ft
Symboles :   Orages  Brouillard  Fortes neiges  Fortes précipitations  Vent > 20 kt
SIGMETs :   Divers  Orages  Givrage  Turbulence  Onde Orograph.  Cendres Volcan.







- Altitude de l'aérodrome : 82 ft
- Code IATA : QIE
- Voir les cartes d'approche


LFMI - Istres

DERNIER METAR :
  • 231930Z AUTO 17007KT CAVOK 10/08 Q1029 NOSIG

METARs EXPIRÉS :
  • 231900Z AUTO 16007KT CAVOK 11/08 Q1029 NOSIG
  • 231830Z AUTO 16010KT CAVOK 12/08 Q1028 NOSIG
  • 231800Z AUTO 16010KT CAVOK 12/08 Q1028 NOSIG
  • 231730Z AUTO 16012KT CAVOK 13/08 Q1028 BECMG VRB02KT
  • 231700Z AUTO 17014KT CAVOK 13/08 Q1027 BECMG VRB02KT

TAF TAF LFMI
Valide du 23 à 15h jusqu'au 24 à 15h UTC


231400Z 2315/2415 18010KT CAVOK
BECMG 2318/2320 VRB02KT
Pas de NOTAMs connus pour ce terrain.
1 SIGMET publié pour la FIR Marseille (LFMM) :
 
Onde orographique forte
LFMM SIGMET 3 VALID 231900/232100 LFPW
LFMM MARSEILLE FIR/UIR SEV MTW FCST WI N4330 E00830 - N4315 E00945 - N4115 E00945 - N4115 E00830 - N4245 E00715 - N4330 E00830 SFC/FL200 STNR WKN=



MET'MAP, la Météo Aéronautique d'un coup d'oeil ! - Copyright ORBIFLY Décembre 2007 - Disclaimer

ORBIFLY MET'MAP TEAM :

Programmation & Développement : Alexandra Zaïnal
Conception & Développement : Baudouin d'Aumeries
Co-Programmation & Développement : Marc-Olivier Méhu
Soutien technique & logistique : Manuel Goepfert

Contact : metmap@orbifly.com




SOURCES & CREDITS :

   NOAA